createdAt,value
2017-05-30T00:00:18.014Z,1007.4
2017-05-30T00:00:58.614Z,1007.37
2017-05-30T00:01:39.207Z,1007.37
2017-05-30T00:02:19.783Z,1007.33
2017-05-30T00:03:00.362Z,1007.29
2017-05-30T00:03:40.942Z,1007.24
2017-05-30T00:04:21.521Z,1007.23
2017-05-30T00:05:02.112Z,1007.17
2017-05-30T00:05:42.700Z,1007.16
2017-05-30T00:06:23.272Z,1007.17
2017-05-30T00:07:03.853Z,1007.15
2017-05-30T00:07:44.442Z,1007.17
2017-05-30T00:08:25.025Z,1007.13
2017-05-30T00:09:05.622Z,1007.14
2017-05-30T00:09:46.219Z,1007.12
2017-05-30T00:10:26.809Z,1007.16
2017-05-30T00:11:07.409Z,1007.14
2017-05-30T00:11:47.978Z,1007.08
2017-05-30T00:12:28.573Z,1007.08
2017-05-30T00:13:09.158Z,1007.08
2017-05-30T00:13:49.816Z,1007.06
2017-05-30T00:14:30.406Z,1007.07
2017-05-30T00:15:10.988Z,1007.03
2017-05-30T00:15:51.574Z,1007.03
2017-05-30T00:16:32.145Z,1006.99
2017-05-30T00:17:12.724Z,1006.96
2017-05-30T00:17:53.309Z,1006.94
2017-05-30T00:18:33.896Z,1006.88
2017-05-30T00:19:14.477Z,1006.88
2017-05-30T00:19:55.103Z,1006.86
2017-05-30T00:20:35.687Z,1006.84
2017-05-30T00:21:16.277Z,1006.81
2017-05-30T00:21:56.858Z,1006.78
2017-05-30T00:22:37.442Z,1006.8
2017-05-30T00:23:18.025Z,1006.75
2017-05-30T00:23:58.605Z,1006.74
2017-05-30T00:24:39.191Z,1006.73
2017-05-30T00:25:19.789Z,1006.72
2017-05-30T00:26:00.375Z,1006.71
2017-05-30T00:26:40.958Z,1006.73
2017-05-30T00:27:21.534Z,1006.72
2017-05-30T00:28:02.116Z,1006.72
2017-05-30T00:28:42.708Z,1006.73
2017-05-30T00:29:23.290Z,1006.69
2017-05-30T00:30:03.866Z,1006.72
2017-05-30T00:30:44.455Z,1006.72
2017-05-30T00:31:25.059Z,1006.72
2017-05-30T00:32:05.651Z,1006.7
2017-05-30T00:32:46.232Z,1006.73
2017-05-30T00:33:26.808Z,1006.76
2017-05-30T00:34:07.385Z,1006.74
2017-05-30T00:34:47.975Z,1006.73
2017-05-30T00:35:28.557Z,1006.72
2017-05-30T00:36:09.137Z,1006.74
2017-05-30T00:36:49.716Z,1006.76
2017-05-30T00:37:30.291Z,1006.78
2017-05-30T00:38:10.888Z,1006.74
2017-05-30T00:38:51.478Z,1006.75
2017-05-30T00:39:32.059Z,1006.77
2017-05-30T00:40:12.638Z,1006.79
2017-05-30T00:40:53.226Z,1006.72
2017-05-30T00:41:33.791Z,1006.71
2017-05-30T00:42:14.369Z,1006.69
2017-05-30T00:42:54.947Z,1006.71
2017-05-30T00:43:35.555Z,1006.71
2017-05-30T00:44:16.134Z,1006.7
2017-05-30T00:44:56.710Z,1006.7
2017-05-30T00:45:37.290Z,1006.7
2017-05-30T00:46:17.883Z,1006.72
2017-05-30T00:46:58.469Z,1006.71
2017-05-30T00:47:39.050Z,1006.69
2017-05-30T00:48:19.642Z,1006.71
2017-05-30T00:49:00.225Z,1006.71
2017-05-30T00:49:40.818Z,1006.69
2017-05-30T00:50:21.394Z,1006.7
2017-05-30T00:51:01.984Z,1006.68
2017-05-30T00:51:42.593Z,1006.66
2017-05-30T00:52:23.182Z,1006.63
2017-05-30T00:53:03.774Z,1006.61
2017-05-30T00:53:44.365Z,1006.63
2017-05-30T00:54:24.966Z,1006.59
2017-05-30T00:55:05.547Z,1006.57
2017-05-30T00:55:46.131Z,1006.62
2017-05-30T00:56:26.715Z,1006.57
2017-05-30T00:57:07.297Z,1006.58
2017-05-30T00:57:47.882Z,1006.57
2017-05-30T00:58:28.471Z,1006.55
2017-05-30T00:59:09.551Z,1006.53
2017-05-30T00:59:49.649Z,1006.52
2017-05-30T01:00:30.275Z,1006.51
2017-05-30T01:01:10.851Z,1006.51
2017-05-30T01:01:51.451Z,1006.5
2017-05-30T01:02:32.049Z,1006.49
2017-05-30T01:03:12.638Z,1006.45
2017-05-30T01:03:53.215Z,1006.49
2017-05-30T01:04:33.792Z,1006.44
2017-05-30T01:05:14.382Z,1006.46
2017-05-30T01:05:54.970Z,1006.46
2017-05-30T01:06:35.562Z,1006.44
2017-05-30T01:07:16.153Z,1006.42
2017-05-30T01:07:56.741Z,1006.43
2017-05-30T01:08:37.335Z,1006.41
2017-05-30T01:09:17.913Z,1006.37
2017-05-30T01:09:58.506Z,1006.41
2017-05-30T01:10:39.088Z,1006.4
2017-05-30T01:11:19.667Z,1006.35
2017-05-30T01:12:00.252Z,1006.38
2017-05-30T01:12:40.836Z,1006.4
2017-05-30T01:13:21.420Z,1006.38
2017-05-30T01:14:01.999Z,1006.42
2017-05-30T01:14:42.579Z,1006.41
2017-05-30T01:15:23.183Z,1006.46
2017-05-30T01:16:03.774Z,1006.49
2017-05-30T01:16:44.364Z,1006.46
2017-05-30T01:17:24.944Z,1006.49
2017-05-30T01:18:05.542Z,1006.53
2017-05-30T01:18:46.131Z,1006.54
2017-05-30T01:19:26.726Z,1006.57
2017-05-30T01:20:07.321Z,1006.56
2017-05-30T01:20:47.915Z,1006.56
2017-05-30T01:21:28.511Z,1006.59
2017-05-30T01:22:09.112Z,1006.56
2017-05-30T01:22:49.704Z,1006.59
2017-05-30T01:23:30.293Z,1006.55
2017-05-30T01:24:10.877Z,1006.51
2017-05-30T01:24:51.491Z,1006.49
2017-05-30T01:25:32.075Z,1006.49
2017-05-30T01:26:12.665Z,1006.45
2017-05-30T01:26:53.253Z,1006.44
2017-05-30T01:27:33.839Z,1006.44
2017-05-30T01:28:14.421Z,1006.41
2017-05-30T01:28:55.029Z,1006.43
2017-05-30T01:29:35.622Z,1006.41
2017-05-30T01:30:16.211Z,1006.45
2017-05-30T01:30:56.791Z,1006.46
2017-05-30T01:31:37.372Z,1006.51
2017-05-30T01:32:17.947Z,1006.5
2017-05-30T01:32:58.542Z,1006.51
2017-05-30T01:33:39.129Z,1006.52
2017-05-30T01:34:19.705Z,1006.53
2017-05-30T01:35:00.282Z,1006.5
2017-05-30T01:35:40.867Z,1006.57
2017-05-30T01:36:21.450Z,1006.56
2017-05-30T01:37:02.045Z,1006.61
2017-05-30T01:37:42.624Z,1006.55
2017-05-30T01:38:23.215Z,1006.59
2017-05-30T01:39:03.812Z,1006.55
2017-05-30T01:39:44.438Z,1006.53
2017-05-30T01:40:25.009Z,1006.51
2017-05-30T01:41:05.594Z,1006.48
2017-05-30T01:41:46.175Z,1006.47
2017-05-30T01:42:26.765Z,1006.48
2017-05-30T01:43:07.361Z,1006.41
2017-05-30T01:43:47.942Z,1006.41
2017-05-30T01:44:28.526Z,1006.38
2017-05-30T01:45:09.120Z,1006.38
2017-05-30T01:45:49.710Z,1006.31
2017-05-30T01:46:30.344Z,1006.3
2017-05-30T01:47:10.931Z,1006.28
2017-05-30T01:47:51.524Z,1006.28
2017-05-30T01:48:32.110Z,1006.24
2017-05-30T01:49:12.719Z,1006.24
2017-05-30T01:49:53.305Z,1006.27
2017-05-30T01:50:33.885Z,1006.25
2017-05-30T01:51:14.487Z,1006.27
2017-05-30T01:51:55.070Z,1006.23
2017-05-30T01:52:35.649Z,1006.23
2017-05-30T01:53:16.226Z,1006.23
2017-05-30T01:53:56.815Z,1006.21
2017-05-30T01:54:37.390Z,1006.22
2017-05-30T01:55:17.993Z,1006.22
2017-05-30T01:55:58.579Z,1006.24
2017-05-30T01:56:39.167Z,1006.28
2017-05-30T01:57:19.765Z,1006.29
2017-05-30T01:58:00.350Z,1006.3
2017-05-30T01:58:40.923Z,1006.3
2017-05-30T01:59:21.509Z,1006.32
2017-05-30T02:00:02.101Z,1006.35
2017-05-30T02:00:42.776Z,1006.33
2017-05-30T02:01:23.361Z,1006.32
2017-05-30T02:02:03.967Z,1006.26
2017-05-30T02:02:44.579Z,1006.31
2017-05-30T02:03:25.170Z,1006.27
2017-05-30T02:04:05.773Z,1006.28
2017-05-30T02:04:46.357Z,1006.26
2017-05-30T02:05:26.955Z,1006.23
2017-05-30T02:06:07.539Z,1006.19
2017-05-30T02:06:48.181Z,1006.18
2017-05-30T02:07:28.769Z,1006.17
2017-05-30T02:08:09.364Z,1006.16
2017-05-30T02:08:49.961Z,1006.14
2017-05-30T02:09:30.597Z,1006.15
2017-05-30T02:10:11.168Z,1006.14
2017-05-30T02:10:51.761Z,1006.12
2017-05-30T02:11:32.354Z,1006.11
2017-05-30T02:12:12.940Z,1006.1
2017-05-30T02:12:53.531Z,1006.08
2017-05-30T02:13:34.115Z,1006.07
2017-05-30T02:14:14.706Z,1006.03
2017-05-30T02:14:55.345Z,1005.99
2017-05-30T02:15:35.891Z,1006.04
2017-05-30T02:16:16.476Z,1006.02
2017-05-30T02:16:57.044Z,1006.01
2017-05-30T02:17:37.646Z,1006.01
2017-05-30T02:18:18.235Z,1005.96
2017-05-30T02:18:58.841Z,1005.98
2017-05-30T02:19:39.427Z,1006.02
2017-05-30T02:20:20.005Z,1006.01
2017-05-30T02:21:00.607Z,1006.02
2017-05-30T02:21:41.191Z,1005.95
2017-05-30T02:22:21.776Z,1005.98
2017-05-30T02:23:02.361Z,1005.99
2017-05-30T02:23:42.962Z,1005.96
2017-05-30T02:24:23.545Z,1005.96
2017-05-30T02:25:04.142Z,1005.99
2017-05-30T02:25:44.734Z,1005.91
2017-05-30T02:26:25.325Z,1005.92
2017-05-30T02:27:05.947Z,1005.91
2017-05-30T02:27:46.549Z,1005.93
2017-05-30T02:28:27.139Z,1005.87
2017-05-30T02:29:07.738Z,1005.89
2017-05-30T02:29:48.336Z,1005.85
2017-05-30T02:30:28.930Z,1005.88
2017-05-30T02:31:09.526Z,1005.77
2017-05-30T02:31:50.108Z,1005.76
2017-05-30T02:32:30.710Z,1005.76
2017-05-30T02:33:11.298Z,1005.77
2017-05-30T02:33:51.893Z,1005.7
2017-05-30T02:34:32.473Z,1005.75
2017-05-30T02:35:13.069Z,1005.74
2017-05-30T02:35:53.659Z,1005.72
2017-05-30T02:36:34.296Z,1005.74
2017-05-30T02:37:14.818Z,1005.71
2017-05-30T02:37:55.398Z,1005.72
2017-05-30T02:38:35.975Z,1005.73
2017-05-30T02:39:16.568Z,1005.69
2017-05-30T02:39:57.162Z,1005.69
2017-05-30T02:40:37.755Z,1005.7
2017-05-30T02:41:18.330Z,1005.68
2017-05-30T02:41:58.909Z,1005.68
2017-05-30T02:42:39.495Z,1005.7
2017-05-30T02:43:20.083Z,1005.7
2017-05-30T02:44:00.682Z,1005.67
2017-05-30T02:44:41.273Z,1005.73
2017-05-30T02:45:21.859Z,1005.69
2017-05-30T02:46:02.440Z,1005.68
2017-05-30T02:46:43.028Z,1005.71
2017-05-30T02:47:23.618Z,1005.73
2017-05-30T02:48:04.200Z,1005.71
2017-05-30T02:48:44.795Z,1005.72
2017-05-30T02:49:25.386Z,1005.75
2017-05-30T02:50:05.968Z,1005.71
2017-05-30T02:50:46.551Z,1005.76
2017-05-30T02:51:27.146Z,1005.68
2017-05-30T02:52:07.733Z,1005.68
2017-05-30T02:52:48.310Z,1005.68
2017-05-30T02:53:28.888Z,1005.67
2017-05-30T02:54:09.472Z,1005.68
2017-05-30T02:54:50.067Z,1005.68
2017-05-30T02:55:30.641Z,1005.74
2017-05-30T02:56:11.231Z,1005.72
2017-05-30T02:56:51.815Z,1005.76
2017-05-30T02:57:32.422Z,1005.72
2017-05-30T02:58:13.013Z,1005.69
2017-05-30T02:58:53.603Z,1005.71
2017-05-30T02:59:34.204Z,1005.72
2017-05-30T03:00:14.808Z,1005.72
2017-05-30T03:00:55.386Z,1005.68
2017-05-30T03:01:35.980Z,1005.68
2017-05-30T03:02:16.575Z,1005.71
2017-05-30T03:02:57.189Z,1005.71
2017-05-30T03:03:37.767Z,1005.72
2017-05-30T03:04:18.428Z,1005.73
2017-05-30T03:04:59.060Z,1005.68
2017-05-30T03:05:39.642Z,1005.7
2017-05-30T03:06:20.229Z,1005.71
2017-05-30T03:07:00.839Z,1005.68
2017-05-30T03:07:41.431Z,1005.65
2017-05-30T03:08:22.018Z,1005.69
2017-05-30T03:09:02.600Z,1005.7
2017-05-30T03:09:43.192Z,1005.7
2017-05-30T03:10:23.776Z,1005.68
2017-05-30T03:11:04.357Z,1005.7
2017-05-30T03:11:44.950Z,1005.71
2017-05-30T03:12:25.556Z,1005.73
2017-05-30T03:13:06.175Z,1005.73
2017-05-30T03:13:46.749Z,1005.71
2017-05-30T03:14:27.329Z,1005.75
2017-05-30T03:15:07.910Z,1005.76
2017-05-30T03:15:48.496Z,1005.75
2017-05-30T03:16:29.080Z,1005.77
2017-05-30T03:17:09.671Z,1005.78
2017-05-30T03:17:50.277Z,1005.78
2017-05-30T03:18:30.876Z,1005.79
2017-05-30T03:19:11.487Z,1005.75
2017-05-30T03:19:52.082Z,1005.8
2017-05-30T03:20:32.675Z,1005.8
2017-05-30T03:21:13.254Z,1005.75
2017-05-30T03:21:53.837Z,1005.82
2017-05-30T03:22:34.416Z,1005.8
2017-05-30T03:23:15.037Z,1005.82
2017-05-30T03:23:55.627Z,1005.8
2017-05-30T03:24:36.236Z,1005.84
2017-05-30T03:25:16.828Z,1005.82
2017-05-30T03:25:57.411Z,1005.86
2017-05-30T03:26:38.013Z,1005.87
2017-05-30T03:27:18.602Z,1005.82
2017-05-30T03:27:59.196Z,1005.85
2017-05-30T03:28:39.790Z,1005.84
2017-05-30T03:29:20.387Z,1005.84
2017-05-30T03:30:00.980Z,1005.81
2017-05-30T03:30:41.572Z,1005.82
2017-05-30T03:31:22.152Z,1005.77
2017-05-30T03:32:02.737Z,1005.85
2017-05-30T03:32:43.338Z,1005.81
2017-05-30T03:33:23.913Z,1005.8
2017-05-30T03:34:04.506Z,1005.82
2017-05-30T03:34:45.116Z,1005.85
2017-05-30T03:35:25.714Z,1005.84
2017-05-30T03:36:06.295Z,1005.81
2017-05-30T03:36:46.889Z,1005.85
2017-05-30T03:37:27.462Z,1005.82
2017-05-30T03:38:08.071Z,1005.82
2017-05-30T03:38:48.672Z,1005.87
2017-05-30T03:39:29.262Z,1005.85
2017-05-30T03:40:09.849Z,1005.82
2017-05-30T03:40:50.446Z,1005.85
2017-05-30T03:41:31.030Z,1005.83
2017-05-30T03:42:11.622Z,1005.86
2017-05-30T03:42:52.207Z,1005.86
2017-05-30T03:43:32.791Z,1005.86
2017-05-30T03:44:13.374Z,1005.8
2017-05-30T03:44:53.979Z,1005.83
2017-05-30T03:45:34.589Z,1005.77
2017-05-30T03:46:15.189Z,1005.8
2017-05-30T03:46:55.769Z,1005.78
2017-05-30T03:47:36.370Z,1005.83
2017-05-30T03:48:16.947Z,1005.81
2017-05-30T03:48:57.569Z,1005.81
2017-05-30T03:49:38.166Z,1005.82
2017-05-30T03:50:18.766Z,1005.82
2017-05-30T03:50:59.360Z,1005.82
2017-05-30T03:51:39.949Z,1005.77
2017-05-30T03:52:20.539Z,1005.81
2017-05-30T03:53:01.118Z,1005.8
2017-05-30T03:53:41.688Z,1005.78
2017-05-30T03:54:22.330Z,1005.79
2017-05-30T03:55:02.911Z,1005.77
2017-05-30T03:55:43.506Z,1005.74
2017-05-30T03:56:24.094Z,1005.75
2017-05-30T03:57:04.717Z,1005.75
2017-05-30T03:57:45.301Z,1005.72
2017-05-30T03:58:25.890Z,1005.71
2017-05-30T03:59:06.479Z,1005.73
2017-05-30T03:59:47.102Z,1005.71
2017-05-30T04:00:27.690Z,1005.76
2017-05-30T04:01:08.287Z,1005.78
2017-05-30T04:01:48.868Z,1005.72
2017-05-30T04:02:29.476Z,1005.73
2017-05-30T04:03:10.057Z,1005.75
2017-05-30T04:03:50.643Z,1005.79
2017-05-30T04:04:31.239Z,1005.77
2017-05-30T04:05:11.818Z,1005.75
2017-05-30T04:05:52.395Z,1005.78
2017-05-30T04:06:32.979Z,1005.77
2017-05-30T04:07:13.569Z,1005.75
2017-05-30T04:07:54.171Z,1005.73
2017-05-30T04:08:34.757Z,1005.74
2017-05-30T04:09:15.347Z,1005.73
2017-05-30T04:09:55.931Z,1005.74
2017-05-30T04:10:36.529Z,1005.75
2017-05-30T04:11:17.131Z,1005.77
2017-05-30T04:11:57.711Z,1005.77
2017-05-30T04:12:38.289Z,1005.78
2017-05-30T04:13:18.886Z,1005.82
2017-05-30T04:13:59.481Z,1005.82
2017-05-30T04:14:40.066Z,1005.77
2017-05-30T04:15:20.664Z,1005.82
2017-05-30T04:16:01.256Z,1005.83
2017-05-30T04:16:41.831Z,1005.81
2017-05-30T04:17:22.431Z,1005.8
2017-05-30T04:18:03.019Z,1005.8
2017-05-30T04:18:43.612Z,1005.81
2017-05-30T04:19:24.205Z,1005.76
2017-05-30T04:20:04.790Z,1005.79
2017-05-30T04:20:45.379Z,1005.81
2017-05-30T04:21:25.969Z,1005.78
2017-05-30T04:22:06.559Z,1005.79
2017-05-30T04:22:47.169Z,1005.8
2017-05-30T04:23:27.780Z,1005.76
2017-05-30T04:24:08.377Z,1005.78
2017-05-30T04:24:48.977Z,1005.79
2017-05-30T04:25:29.566Z,1005.78
2017-05-30T04:26:10.167Z,1005.78
2017-05-30T04:26:50.780Z,1005.78
2017-05-30T04:27:31.360Z,1005.74
2017-05-30T04:28:11.978Z,1005.73
2017-05-30T04:28:52.570Z,1005.76
2017-05-30T04:29:33.171Z,1005.74
2017-05-30T04:30:13.763Z,1005.76
2017-05-30T04:30:54.360Z,1005.77
2017-05-30T04:31:34.938Z,1005.72
2017-05-30T04:32:15.530Z,1005.74
2017-05-30T04:32:56.118Z,1005.73
2017-05-30T04:33:36.703Z,1005.74
2017-05-30T04:34:17.289Z,1005.71
2017-05-30T04:34:57.904Z,1005.73
2017-05-30T04:35:38.491Z,1005.71
2017-05-30T04:36:19.074Z,1005.77
2017-05-30T04:36:59.657Z,1005.69
2017-05-30T04:37:40.238Z,1005.73
2017-05-30T04:38:20.810Z,1005.72
2017-05-30T04:39:01.388Z,1005.69
2017-05-30T04:39:41.971Z,1005.65
2017-05-30T04:40:22.554Z,1005.67
2017-05-30T04:41:03.185Z,1005.62
2017-05-30T04:41:43.773Z,1005.63
2017-05-30T04:42:24.370Z,1005.64
2017-05-30T04:43:04.958Z,1005.62
2017-05-30T04:43:45.568Z,1005.6
2017-05-30T04:44:26.158Z,1005.57
2017-05-30T04:45:06.763Z,1005.61
2017-05-30T04:45:47.356Z,1005.58
2017-05-30T04:46:27.931Z,1005.56
2017-05-30T04:47:08.516Z,1005.56
2017-05-30T04:47:49.101Z,1005.54
2017-05-30T04:48:29.696Z,1005.54
2017-05-30T04:49:10.264Z,1005.54
2017-05-30T04:49:50.841Z,1005.51
2017-05-30T04:50:31.445Z,1005.5
2017-05-30T04:51:12.060Z,1005.49
2017-05-30T04:51:52.638Z,1005.49
2017-05-30T04:52:33.250Z,1005.46
2017-05-30T04:53:13.838Z,1005.47
2017-05-30T04:53:54.421Z,1005.53
2017-05-30T04:54:35.021Z,1005.48
2017-05-30T04:55:15.709Z,1005.5
2017-05-30T04:55:56.279Z,1005.47
2017-05-30T04:56:36.869Z,1005.47
2017-05-30T04:57:17.445Z,1005.51
2017-05-30T04:57:58.063Z,1005.48
2017-05-30T04:58:38.657Z,1005.46
2017-05-30T04:59:19.252Z,1005.46
2017-05-30T04:59:59.839Z,1005.47
2017-05-30T05:00:40.421Z,1005.43
2017-05-30T05:01:21.018Z,1005.41
2017-05-30T05:02:01.637Z,1005.41
2017-05-30T05:02:42.223Z,1005.4
2017-05-30T05:03:22.812Z,1005.42
2017-05-30T05:04:03.404Z,1005.38
2017-05-30T05:04:44.001Z,1005.42
2017-05-30T05:05:24.600Z,1005.43
2017-05-30T05:06:05.185Z,1005.36
2017-05-30T05:06:45.778Z,1005.35
2017-05-30T05:07:26.365Z,1005.35
2017-05-30T05:08:06.955Z,1005.35
2017-05-30T05:08:47.544Z,1005.36
2017-05-30T05:09:28.141Z,1005.37
2017-05-30T05:10:08.721Z,1005.34
2017-05-30T05:10:49.316Z,1005.37
2017-05-30T05:11:29.961Z,1005.4
2017-05-30T05:12:10.579Z,1005.35
2017-05-30T05:12:51.170Z,1005.33
2017-05-30T05:13:31.798Z,1005.41
2017-05-30T05:14:12.432Z,1005.4
2017-05-30T05:14:53.047Z,1005.34
2017-05-30T05:15:33.699Z,1005.32
2017-05-30T05:16:14.285Z,1005.31
2017-05-30T05:16:54.879Z,1005.34
2017-05-30T05:17:35.467Z,1005.36
2017-05-30T05:18:16.050Z,1005.34
2017-05-30T05:18:56.636Z,1005.34
2017-05-30T05:19:37.243Z,1005.32
2017-05-30T05:20:17.828Z,1005.37
2017-05-30T05:20:58.400Z,1005.31
2017-05-30T05:21:38.977Z,1005.3
2017-05-30T05:22:19.569Z,1005.33
2017-05-30T05:23:00.152Z,1005.35
2017-05-30T05:23:40.739Z,1005.35
2017-05-30T05:24:21.322Z,1005.34
2017-05-30T05:25:01.907Z,1005.33
2017-05-30T05:25:42.495Z,1005.33
2017-05-30T05:26:23.066Z,1005.31
2017-05-30T05:27:03.659Z,1005.29
2017-05-30T05:27:44.252Z,1005.29
2017-05-30T05:28:24.859Z,1005.37
2017-05-30T05:29:05.459Z,1005.38
2017-05-30T05:29:46.041Z,1005.44
2017-05-30T05:30:26.615Z,1005.47
2017-05-30T05:31:07.215Z,1005.45
2017-05-30T05:31:47.817Z,1005.46
2017-05-30T05:32:28.434Z,1005.5
2017-05-30T05:33:09.034Z,1005.51
2017-05-30T05:33:49.630Z,1005.5
2017-05-30T05:34:30.213Z,1005.5
2017-05-30T05:35:10.856Z,1005.54
2017-05-30T05:35:51.437Z,1005.59
2017-05-30T05:36:32.026Z,1005.57
2017-05-30T05:37:12.621Z,1005.58
2017-05-30T05:37:53.202Z,1005.63
2017-05-30T05:38:33.785Z,1005.62
2017-05-30T05:39:14.437Z,1005.65
2017-05-30T05:39:55.048Z,1005.74
2017-05-30T05:40:35.639Z,1005.8
2017-05-30T05:41:16.234Z,1005.81
2017-05-30T05:41:56.863Z,1005.86
2017-05-30T05:42:38.841Z,1005.91
2017-05-30T05:43:19.403Z,1005.97
2017-05-30T05:43:59.992Z,1006.01
2017-05-30T05:44:40.584Z,1005.97
2017-05-30T05:45:21.209Z,1006.04
2017-05-30T05:46:09.888Z,1006.18
2017-05-30T05:46:54.629Z,1006.15
2017-05-30T05:47:35.219Z,1006.27
2017-05-30T05:48:36.680Z,1006.34
2017-05-30T05:50:29.281Z,1006.49
2017-05-30T05:51:09.861Z,1006.55
2017-05-30T05:51:50.477Z,1006.61
2017-05-30T05:52:31.080Z,1006.59
2017-05-30T05:53:11.686Z,1006.57
2017-05-30T05:53:52.295Z,1006.63
2017-05-30T05:54:32.900Z,1006.66
2017-05-30T05:55:13.486Z,1006.66
2017-05-30T05:55:54.178Z,1006.67
2017-05-30T05:56:34.811Z,1006.74
2017-05-30T05:57:15.382Z,1006.67
2017-05-30T05:57:55.987Z,1006.7
2017-05-30T05:58:36.591Z,1006.73
2017-05-30T05:59:17.202Z,1006.82
2017-05-30T05:59:57.818Z,1006.79
2017-05-30T06:00:38.448Z,1006.77
2017-05-30T06:01:19.022Z,1006.72
2017-05-30T06:01:59.618Z,1006.59
2017-05-30T06:02:40.228Z,1006.49
2017-05-30T06:03:20.850Z,1006.48
2017-05-30T06:04:01.495Z,1006.39
2017-05-30T06:04:42.081Z,1006.39
2017-05-30T06:05:22.707Z,1006.37
2017-05-30T06:06:03.299Z,1006.36
2017-05-30T06:06:43.893Z,1006.33
2017-05-30T06:07:24.474Z,1006.32
2017-05-30T06:08:05.072Z,1006.2
2017-05-30T06:08:45.844Z,1006.16
2017-05-30T06:09:26.442Z,1006.1
2017-05-30T06:10:07.045Z,1006.06
2017-05-30T06:10:47.667Z,1006.14
2017-05-30T06:11:28.266Z,1006.42
2017-05-30T06:12:08.858Z,1006.68
2017-05-30T06:12:49.451Z,1006.89
2017-05-30T06:13:30.039Z,1006.98
2017-05-30T06:14:10.636Z,1006.78
2017-05-30T06:14:51.235Z,1006.71
2017-05-30T06:15:31.822Z,1006.81
2017-05-30T06:16:12.466Z,1006.88
2017-05-30T06:16:53.064Z,1006.78
2017-05-30T06:17:33.665Z,1006.71
2017-05-30T06:18:14.262Z,1006.6
2017-05-30T06:18:54.845Z,1006.6
2017-05-30T06:19:35.454Z,1006.56
2017-05-30T06:20:16.044Z,1006.56
2017-05-30T06:20:56.629Z,1006.62
2017-05-30T06:21:37.304Z,1006.72
2017-05-30T06:22:17.906Z,1006.8
2017-05-30T06:22:58.508Z,1006.97
2017-05-30T06:23:39.102Z,1006.93
2017-05-30T06:24:19.762Z,1006.86
2017-05-30T06:25:00.304Z,1006.86
2017-05-30T06:25:40.884Z,1007.04
2017-05-30T06:26:21.542Z,1007.35
2017-05-30T06:27:02.137Z,1007.4
2017-05-30T06:27:42.767Z,1007.42
2017-05-30T06:28:23.362Z,1007.29
2017-05-30T06:29:03.943Z,1007.26
2017-05-30T06:29:44.542Z,1007.27
2017-05-30T06:30:25.137Z,1007.27
2017-05-30T06:31:05.733Z,1007.28
2017-05-30T06:31:46.330Z,1007.38
2017-05-30T06:32:26.974Z,1007.48
2017-05-30T06:33:07.590Z,1007.55
2017-05-30T06:33:48.213Z,1007.48
2017-05-30T06:34:28.863Z,1007.5
2017-05-30T06:35:09.551Z,1007.39
2017-05-30T06:35:50.222Z,1006.97
2017-05-30T06:36:30.838Z,1006.33
2017-05-30T06:37:11.422Z,1005.9
2017-05-30T06:37:52.052Z,1005.74
2017-05-30T06:38:32.678Z,1005.7
2017-05-30T06:39:13.312Z,1005.56
2017-05-30T06:39:54.007Z,1005.7
2017-05-30T06:40:34.626Z,1005.65
2017-05-30T06:41:15.268Z,1005.67
2017-05-30T06:41:55.876Z,1005.68
2017-05-30T06:42:36.621Z,1005.71
2017-05-30T06:43:17.316Z,1005.73
2017-05-30T06:43:57.915Z,1005.71
2017-05-30T06:44:38.581Z,1005.74
2017-05-30T06:45:19.190Z,1005.86
2017-05-30T06:45:59.844Z,1005.93
2017-05-30T06:46:40.470Z,1005.88
2017-05-30T06:47:21.063Z,1006.7
2017-05-30T06:48:01.653Z,1005.64
2017-05-30T06:48:42.238Z,1006.98
2017-05-30T06:49:22.839Z,1006.97
2017-05-30T06:50:03.444Z,1006.48
2017-05-30T06:50:44.036Z,1005.85
2017-05-30T06:51:24.635Z,1005.59
2017-05-30T06:52:05.230Z,1005.55
2017-05-30T06:52:45.823Z,1005.75
2017-05-30T06:53:26.451Z,1005.71
2017-05-30T06:54:07.060Z,1005.55
2017-05-30T06:54:47.764Z,1005.52
2017-05-30T06:55:28.383Z,1005.51
2017-05-30T06:56:08.977Z,1005.56
2017-05-30T06:56:49.569Z,1005.53
2017-05-30T06:57:30.173Z,1005.7
2017-05-30T06:58:10.772Z,1005.63
2017-05-30T06:58:51.382Z,1005.57
2017-05-30T06:59:32.007Z,1005.64
2017-05-30T07:00:12.596Z,1005.75
2017-05-30T07:00:53.223Z,1005.7
2017-05-30T07:01:33.827Z,1005.65
2017-05-30T07:02:14.433Z,1005.59
2017-05-30T07:02:55.039Z,1005.59
2017-05-30T07:03:35.646Z,1005.62
2017-05-30T07:04:16.247Z,1005.59
2017-05-30T07:04:56.847Z,1005.58
2017-05-30T07:05:37.455Z,1005.57
2017-05-30T07:06:18.063Z,1005.6
2017-05-30T07:06:58.733Z,1005.56
2017-05-30T07:07:39.335Z,1005.96
2017-05-30T07:08:19.969Z,1006.07
2017-05-30T07:09:00.654Z,1005.96
2017-05-30T07:09:41.303Z,1005.84
2017-05-30T07:10:22.114Z,1005.74
2017-05-30T07:11:02.726Z,1005.65
2017-05-30T07:11:43.353Z,1005.55
2017-05-30T07:12:23.932Z,1005.51
2017-05-30T07:13:04.529Z,1005.67
2017-05-30T07:13:45.110Z,1005.64
2017-05-30T07:14:25.695Z,1005.65
2017-05-30T07:15:06.330Z,1005.65
2017-05-30T07:15:46.915Z,1005.65
2017-05-30T07:16:27.513Z,1005.55
2017-05-30T07:17:08.117Z,1005.68
2017-05-30T07:17:48.724Z,1005.59
2017-05-30T07:18:29.319Z,1005.47
2017-05-30T07:19:09.917Z,1005.48
2017-05-30T07:19:50.530Z,1005.49
2017-05-30T07:20:31.143Z,1005.47
2017-05-30T07:21:11.758Z,1005.51
2017-05-30T07:21:52.490Z,1005.48
2017-05-30T07:22:33.299Z,1005.49
2017-05-30T07:23:13.974Z,1005.48
2017-05-30T07:23:54.939Z,1005.87
2017-05-30T07:24:35.606Z,1005.83
2017-05-30T07:25:16.448Z,1005.83
2017-05-30T07:25:57.208Z,1005.82
2017-05-30T07:26:37.968Z,1005.84
2017-05-30T07:27:18.742Z,1005.8
2017-05-30T07:27:59.536Z,1005.65
2017-05-30T07:28:40.267Z,1005.77
2017-05-30T07:29:21.016Z,1005.8
2017-05-30T07:30:01.826Z,1005.62
2017-05-30T07:30:42.507Z,1005.56
2017-05-30T07:31:23.155Z,1005.75
2017-05-30T07:32:03.873Z,1005.67
2017-05-30T07:32:44.647Z,1005.75
2017-05-30T07:33:25.583Z,1005.6
2017-05-30T07:34:06.270Z,1005.59
2017-05-30T07:34:46.904Z,1005.6
2017-05-30T07:35:27.499Z,1005.59
2017-05-30T07:36:08.089Z,1005.59
2017-05-30T07:36:48.670Z,1005.51
2017-05-30T07:37:29.272Z,1005.46
2017-05-30T07:38:09.878Z,1005.5
2017-05-30T07:38:50.521Z,1005.5
2017-05-30T07:39:31.103Z,1005.49
2017-05-30T07:40:11.690Z,1005.47
2017-05-30T07:40:52.282Z,1005.52
2017-05-30T07:41:32.874Z,1005.61
2017-05-30T07:42:13.534Z,1005.59
2017-05-30T07:42:54.131Z,1005.58
2017-05-30T07:43:34.716Z,1005.59
2017-05-30T07:44:15.344Z,1005.59
2017-05-30T07:44:55.903Z,1005.53
2017-05-30T07:45:36.499Z,1005.62
2017-05-30T07:46:17.100Z,1005.55
2017-05-30T07:46:57.692Z,1005.6
2017-05-30T07:47:38.285Z,1005.59
2017-05-30T07:48:18.878Z,1005.62
2017-05-30T07:48:59.471Z,1005.62
2017-05-30T07:49:40.075Z,1005.61
2017-05-30T07:50:20.670Z,1005.58
2017-05-30T07:51:01.274Z,1005.59
2017-05-30T07:51:41.881Z,1005.62
2017-05-30T07:52:22.473Z,1005.58
2017-05-30T07:53:03.059Z,1005.53
2017-05-30T07:53:43.658Z,1005.55
2017-05-30T07:54:24.255Z,1005.55
2017-05-30T07:55:04.873Z,1005.51
2017-05-30T07:55:45.464Z,1005.49
2017-05-30T07:56:26.096Z,1005.5
2017-05-30T07:57:06.743Z,1005.5
2017-05-30T07:57:47.340Z,1005.5
2017-05-30T07:58:27.937Z,1005.45
2017-05-30T07:59:08.542Z,1005.43
2017-05-30T07:59:49.138Z,1005.38
2017-05-30T08:00:29.729Z,1005.38
2017-05-30T08:01:10.313Z,1005.37
2017-05-30T08:01:50.907Z,1005.36
2017-05-30T08:02:31.550Z,1005.42
2017-05-30T08:03:12.156Z,1005.47
2017-05-30T08:03:52.771Z,1005.44
2017-05-30T08:04:33.375Z,1005.45
2017-05-30T08:05:13.968Z,1005.44
2017-05-30T08:05:54.570Z,1005.44
2017-05-30T08:06:35.213Z,1005.47
2017-05-30T08:07:15.800Z,1005.4
2017-05-30T08:07:56.399Z,1005.38
2017-05-30T08:08:37.065Z,1005.38
2017-05-30T08:09:17.676Z,1005.37
2017-05-30T08:09:59.729Z,1005.32
2017-05-30T08:10:41.467Z,1005.33
2017-05-30T08:11:29.270Z,1005.25
2017-05-30T08:12:11.945Z,1005.29
2017-05-30T08:12:52.535Z,1005.23
2017-05-30T08:13:33.127Z,1005.21
2017-05-30T08:14:14.232Z,1005.26